Time;durP1;ratioP1;P1;durP2;ratioP2;P2;SDS_P1;SDS_P2;PMS_P1;PMS_P2;Temp;Humidity;BMP_temperature;BMP_pressure;BME280_temperature;BME280_humidity;BME280_pressure;Samples;Min_cycle;Max_cycle;Signal;HPM_P1;HPM_P2
2020/12/02 00:02:13;;;;;;;48.33;23.17;;;;;;;;;;5012839;28;20029;-57
2020/12/02 00:04:40;;;;;;;47.65;22.95;;;;;;;;;;5012138;28;20100;-57
2020/12/02 00:07:07;;;;;;;44.85;22.63;;;;;;;;;;5012242;28;20022;-57
2020/12/02 00:09:33;;;;;;;46.58;22.60;;;;;;;;;;5012293;28;20034;-56
2020/12/02 00:11:59;;;;;;;45.47;22.05;;;;;;;;;;5011350;28;20029;-57
2020/12/02 00:14:26;;;;;;;44.58;21.23;;;;;;;;;;5010321;28;20100;-57
2020/12/02 00:16:52;;;;;;;45.40;22.60;;;;;;;;;;5011589;28;20083;-57
2020/12/02 00:19:18;;;;;;;44.22;21.17;;;;;;;;;;5013204;28;20018;-57
2020/12/02 00:22:03;;;;;;;45.90;21.90;;;;;;;;;;5012500;28;20022;-57
2020/12/02 00:24:29;;;;;;;49.05;23.83;;;;;;;;;;5010439;28;20498;-58
2020/12/02 00:26:55;;;;;;;51.05;23.58;;;;;;;;;;5012283;28;20105;-57
2020/12/02 00:29:21;;;;;;;61.08;27.88;;;;;;;;;;5011486;28;20063;-56
2020/12/02 00:31:47;;;;;;;60.20;29.20;;;;;;;;;;5012210;28;20477;-58
2020/12/02 00:34:13;;;;;;;59.13;28.80;;;;;;;;;;5012873;28;20547;-57
2020/12/02 00:36:40;;;;;;;57.15;28.52;;;;;;;;;;5011917;28;20030;-57
2020/12/02 00:39:06;;;;;;;65.50;31.85;;;;;;;;;;5012041;28;20084;-57
2020/12/02 00:41:32;;;;;;;64.80;31.60;;;;;;;;;;5012842;28;20428;-57
2020/12/02 00:43:58;;;;;;;61.33;30.52;;;;;;;;;;5012115;28;20037;-57
2020/12/02 00:46:24;;;;;;;56.70;27.52;;;;;;;;;;5011729;28;20062;-57
2020/12/02 00:48:51;;;;;;;51.63;24.73;;;;;;;;;;5011163;28;20446;-58
2020/12/02 00:51:17;;;;;;;44.83;21.92;;;;;;;;;;5012035;28;20108;-57
2020/12/02 00:53:43;;;;;;;45.70;21.92;;;;;;;;;;5010829;28;20026;-57
2020/12/02 00:56:11;;;;;;;45.88;21.92;;;;;;;;;;5012658;28;20014;-57
2020/12/02 00:58:48;;;;;;;57.25;27.13;;;;;;;;;;5008091;28;20421;-57
2020/12/02 01:01:16;;;;;;;68.70;31.25;;;;;;;;;;5006977;28;20022;-56
2020/12/02 01:03:43;;;;;;;68.05;31.20;;;;;;;;;;5007985;28;20108;-57
2020/12/02 01:06:10;;;;;;;103.38;43.53;;;;;;;;;;5008742;28;20473;-57
2020/12/02 01:08:40;;;;;;;84.05;39.63;;;;;;;;;;5009941;28;20030;-57
2020/12/02 01:11:12;;;;;;;75.35;35.50;;;;;;;;;;5010438;28;20030;-58
2020/12/02 01:13:39;;;;;;;77.93;35.53;;;;;;;;;;5011194;28;20038;-57
2020/12/02 01:16:07;;;;;;;82.22;37.50;;;;;;;;;;5012043;28;20113;-57
2020/12/02 01:18:33;;;;;;;82.95;36.95;;;;;;;;;;5012142;28;20053;-57
2020/12/02 01:21:18;;;;;;;94.60;43.53;;;;;;;;;;5011783;28;20092;-57
2020/12/02 01:23:47;;;;;;;130.73;55.42;;;;;;;;;;5000253;28;20025;-57
2020/12/02 01:26:13;;;;;;;131.88;55.70;;;;;;;;;;5011929;28;20026;-58
2020/12/02 01:28:39;;;;;;;106.22;48.30;;;;;;;;;;5009540;28;20068;-57
2020/12/02 01:31:06;;;;;;;96.97;44.35;;;;;;;;;;5011946;28;20470;-57
2020/12/02 01:33:32;;;;;;;124.15;56.88;;;;;;;;;;5012289;28;20519;-57
2020/12/02 01:35:58;;;;;;;150.82;71.95;;;;;;;;;;5008191;28;20038;-57
2020/12/02 01:38:29;;;;;;;172.93;80.80;;;;;;;;;;5014423;28;20041;-57
2020/12/02 01:40:56;;;;;;;183.52;86.13;;;;;;;;;;5015929;28;20080;-57
2020/12/02 01:43:22;;;;;;;195.10;96.53;;;;;;;;;;5015624;28;20021;-57
2020/12/02 01:45:50;;;;;;;184.57;87.07;;;;;;;;;;5015026;28;20046;-58
2020/12/02 01:48:34;;;;;;;167.07;81.93;;;;;;;;;;5015626;28;20053;-57
2020/12/02 01:51:03;;;;;;;143.38;65.95;;;;;;;;;;5013611;28;20492;-58
2020/12/02 01:53:29;;;;;;;136.80;62.50;;;;;;;;;;5014971;28;20026;-57
2020/12/02 01:55:57;;;;;;;138.55;63.75;;;;;;;;;;5011133;28;20105;-57
2020/12/02 01:58:32;;;;;;;143.18;65.75;;;;;;;;;;5014381;28;20034;-57
2020/12/02 02:01:13;;;;;;;165.05;74.13;;;;;;;;;;5014933;28;20026;-57
2020/12/02 02:03:39;;;;;;;162.52;74.07;;;;;;;;;;5013729;28;20520;-57
2020/12/02 02:06:08;;;;;;;171.27;76.32;;;;;;;;;;5014647;28;20029;-56
2020/12/02 02:08:35;;;;;;;169.07;76.55;;;;;;;;;;5014725;28;20539;-59
2020/12/02 02:11:04;;;;;;;165.25;73.70;;;;;;;;;;5014190;28;20029;-59
2020/12/02 02:13:49;;;;;;;163.85;70.63;;;;;;;;;;5015158;28;20366;-58
2020/12/02 02:16:20;;;;;;;152.75;65.97;;;;;;;;;;5006418;28;20030;-58
2020/12/02 02:18:46;;;;;;;133.20;60.17;;;;;;;;;;5014690;28;20018;-58
2020/12/02 02:21:20;;;;;;;124.38;56.33;;;;;;;;;;5007002;28;20064;-58
2020/12/02 02:23:46;;;;;;;128.73;58.70;;;;;;;;;;5009175;28;20113;-59
2020/12/02 02:26:14;;;;;;;121.13;55.10;;;;;;;;;;5014758;28;20021;-58
2020/12/02 02:28:47;;;;;;;115.72;52.30;;;;;;;;;;5014796;28;20029;-59
2020/12/02 02:31:15;;;;;;;118.50;52.95;;;;;;;;;;5014694;28;20022;-58
2020/12/02 02:33:41;;;;;;;108.97;49.70;;;;;;;;;;5014960;28;20492;-59
2020/12/02 02:36:11;;;;;;;101.38;47.28;;;;;;;;;;5015073;28;20030;-58
2020/12/02 02:38:38;;;;;;;211.70;85.03;;;;;;;;;;5013194;28;20033;-59
2020/12/02 02:41:05;;;;;;;137.00;60.28;;;;;;;;;;5009267;28;20029;-58
2020/12/02 02:43:31;;;;;;;133.75;60.13;;;;;;;;;;5014925;28;20021;-59
2020/12/02 02:45:57;;;;;;;138.88;60.65;;;;;;;;;;5014631;28;20034;-58
2020/12/02 02:48:23;;;;;;;132.48;57.95;;;;;;;;;;5013496;28;20117;-58
2020/12/02 02:50:49;;;;;;;117.70;53.35;;;;;;;;;;5014805;28;20034;-58
2020/12/02 02:53:17;;;;;;;92.90;44.10;;;;;;;;;;5014495;28;20088;-58
2020/12/02 02:55:43;;;;;;;94.28;43.17;;;;;;;;;;5014758;28;20029;-59
2020/12/02 02:58:09;;;;;;;93.35;43.58;;;;;;;;;;5014409;28;20105;-58
2020/12/02 03:00:36;;;;;;;99.45;44.13;;;;;;;;;;5014490;28;20026;-58
2020/12/02 03:03:02;;;;;;;103.63;45.88;;;;;;;;;;5014040;28;20053;-57
2020/12/02 03:05:29;;;;;;;92.68;41.42;;;;;;;;;;5014456;28;20077;-58
2020/12/02 03:07:57;;;;;;;80.18;39.22;;;;;;;;;;5011407;28;20096;-60
2020/12/02 03:10:26;;;;;;;86.70;41.10;;;;;;;;;;5014372;28;20084;-58
2020/12/02 03:12:52;;;;;;;75.85;34.72;;;;;;;;;;5014183;28;20026;-58
2020/12/02 03:15:19;;;;;;;84.60;39.85;;;;;;;;;;5009509;28;20101;-58
2020/12/02 03:17:46;;;;;;;84.18;38.50;;;;;;;;;;5014264;28;20034;-58
2020/12/02 03:20:17;;;;;;;87.82;40.13;;;;;;;;;;5014234;28;20033;-58
2020/12/02 03:22:44;;;;;;;90.95;39.88;;;;;;;;;;5014190;28;20053;-59
2020/12/02 03:25:14;;;;;;;84.38;37.67;;;;;;;;;;5004962;28;20037;-60
2020/12/02 03:27:40;;;;;;;79.97;35.90;;;;;;;;;;5012548;28;20033;-58
2020/12/02 03:30:06;;;;;;;74.22;34.60;;;;;;;;;;5013944;28;20022;-58
2020/12/02 03:32:32;;;;;;;72.07;33.95;;;;;;;;;;5013685;28;20485;-58
2020/12/02 03:34:58;;;;;;;71.55;33.05;;;;;;;;;;5014231;28;20465;-58
2020/12/02 03:37:24;;;;;;;65.75;31.30;;;;;;;;;;5013979;28;20390;-59
2020/12/02 03:39:50;;;;;;;70.90;31.23;;;;;;;;;;5013661;28;20504;-59
2020/12/02 03:42:17;;;;;;;63.40;30.25;;;;;;;;;;5013698;28;20030;-58
2020/12/02 03:44:43;;;;;;;72.80;34.03;;;;;;;;;;5013395;28;20038;-58
2020/12/02 03:47:09;;;;;;;56.75;27.75;;;;;;;;;;5013920;28;20025;-58
2020/12/02 03:49:35;;;;;;;66.88;31.00;;;;;;;;;;5013808;28;20484;-58
2020/12/02 03:52:01;;;;;;;64.10;30.30;;;;;;;;;;5007074;28;20461;-58
2020/12/02 03:54:27;;;;;;;75.22;33.42;;;;;;;;;;5013534;28;20061;-58
2020/12/02 03:56:53;;;;;;;86.03;38.85;;;;;;;;;;5013564;28;20121;-58
2020/12/02 03:59:19;;;;;;;91.47;39.72;;;;;;;;;;5013381;28;20551;-58
2020/12/02 04:01:45;;;;;;;126.82;50.03;;;;;;;;;;5013438;28;20030;-58
2020/12/02 04:04:11;;;;;;;91.05;38.17;;;;;;;;;;5013508;28;20038;-59
2020/12/02 04:06:37;;;;;;;76.88;33.60;;;;;;;;;;5005097;28;20068;-59
2020/12/02 04:09:04;;;;;;;67.15;30.48;;;;;;;;;;5013245;28;20030;-58
2020/12/02 04:11:30;;;;;;;67.05;29.45;;;;;;;;;;5013513;28;20105;-58
2020/12/02 04:13:56;;;;;;;64.03;29.55;;;;;;;;;;5013321;28;20486;-58
2020/12/02 04:16:22;;;;;;;68.85;31.77;;;;;;;;;;5013050;28;20033;-58
2020/12/02 04:18:48;;;;;;;200.48;85.28;;;;;;;;;;5013057;28;20420;-58
2020/12/02 04:21:14;;;;;;;74.97;33.30;;;;;;;;;;5004085;28;20097;-58
2020/12/02 04:23:40;;;;;;;78.18;34.30;;;;;;;;;;5008387;28;20057;-58
2020/12/02 04:26:06;;;;;;;79.95;36.90;;;;;;;;;;5000882;28;20038;-59
2020/12/02 04:28:32;;;;;;;75.95;33.60;;;;;;;;;;5008020;28;20033;-57
2020/12/02 04:30:59;;;;;;;62.00;29.90;;;;;;;;;;5013278;28;20033;-58
2020/12/02 04:33:25;;;;;;;74.68;34.13;;;;;;;;;;5012847;28;20022;-58
2020/12/02 04:35:51;;;;;;;72.95;31.90;;;;;;;;;;5012690;28;20030;-58
2020/12/02 04:38:18;;;;;;;70.18;31.98;;;;;;;;;;5012834;28;20049;-58
2020/12/02 04:40:44;;;;;;;68.60;32.22;;;;;;;;;;5012810;28;20061;-58
2020/12/02 04:43:23;;;;;;;65.85;31.02;;;;;;;;;;5012668;28;20119;-59
2020/12/02 04:45:49;;;;;;;250.80;109.93;;;;;;;;;;5012515;28;20045;-58
2020/12/02 04:48:18;;;;;;;97.35;44.58;;;;;;;;;;5012691;28;20383;-58
2020/12/02 04:50:44;;;;;;;84.38;38.10;;;;;;;;;;5012525;28;20021;-58
2020/12/02 04:53:14;;;;;;;78.53;36.30;;;;;;;;;;5012441;28;20018;-60
2020/12/02 04:55:42;;;;;;;73.65;33.90;;;;;;;;;;5011634;28;20040;-60
2020/12/02 04:58:20;;;;;;;72.65;33.80;;;;;;;;;;5012374;28;20025;-59
2020/12/02 05:00:46;;;;;;;88.90;38.05;;;;;;;;;;5012418;28;20037;-58
2020/12/02 05:03:14;;;;;;;92.18;42.35;;;;;;;;;;5009960;28;20054;-57
2020/12/02 05:05:40;;;;;;;79.15;36.55;;;;;;;;;;5002548;28;20038;-59
2020/12/02 05:08:25;;;;;;;68.90;31.60;;;;;;;;;;5012384;28;20037;-58
2020/12/02 05:10:52;;;;;;;71.05;31.42;;;;;;;;;;5011554;28;20030;-58
2020/12/02 05:13:18;;;;;;;75.53;34.35;;;;;;;;;;5011949;28;20037;-58
2020/12/02 05:15:44;;;;;;;68.97;30.15;;;;;;;;;;5011942;28;20029;-58
2020/12/02 05:18:13;;;;;;;129.75;55.10;;;;;;;;;;5012185;28;20022;-59
2020/12/02 05:20:39;;;;;;;76.35;35.63;;;;;;;;;;5011890;28;20026;-57
2020/12/02 05:23:17;;;;;;;80.95;37.45;;;;;;;;;;5011993;28;20029;-58
2020/12/02 05:25:43;;;;;;;95.15;41.88;;;;;;;;;;5005784;28;20464;-58
2020/12/02 05:28:12;;;;;;;97.13;44.28;;;;;;;;;;5011737;28;20036;-58
2020/12/02 05:30:39;;;;;;;159.43;73.93;;;;;;;;;;5011805;28;20470;-58
2020/12/02 05:33:05;;;;;;;116.50;53.67;;;;;;;;;;5011542;28;20053;-57
2020/12/02 05:35:32;;;;;;;98.70;45.65;;;;;;;;;;5011493;28;20037;-58
2020/12/02 05:37:58;;;;;;;91.80;41.47;;;;;;;;;;5011580;28;20021;-59
2020/12/02 05:40:24;;;;;;;87.88;41.97;;;;;;;;;;5009800;28;20034;-57
2020/12/02 05:42:56;;;;;;;103.15;46.03;;;;;;;;;;5009916;28;20037;-60
2020/12/02 05:45:27;;;;;;;88.13;41.72;;;;;;;;;;5011888;28;20038;-58
2020/12/02 05:47:54;;;;;;;85.32;39.35;;;;;;;;;;5011647;28;20018;-57
2020/12/02 05:50:23;;;;;;;106.88;48.30;;;;;;;;;;5010764;28;20392;-58
2020/12/02 05:52:50;;;;;;;104.28;48.50;;;;;;;;;;5011961;28;20718;-57
2020/12/02 05:55:28;;;;;;;126.07;56.92;;;;;;;;;;5011540;28;20045;-59
2020/12/02 05:57:54;;;;;;;121.57;53.17;;;;;;;;;;5011320;28;20030;-58
2020/12/02 06:00:20;;;;;;;131.93;58.78;;;;;;;;;;5011389;28;20041;-59
2020/12/02 06:02:46;;;;;;;123.35;58.85;;;;;;;;;;5010971;28;20079;-57
2020/12/02 06:05:12;;;;;;;150.15;71.53;;;;;;;;;;5011366;28;20038;-59
2020/12/02 06:07:51;;;;;;;158.38;71.28;;;;;;;;;;5010643;28;20161;-58
2020/12/02 06:10:18;;;;;;;108.45;49.92;;;;;;;;;;5006208;28;20037;-58
2020/12/02 06:12:45;;;;;;;154.43;72.80;;;;;;;;;;5011853;28;20053;-58
2020/12/02 06:15:19;;;;;;;147.23;66.38;;;;;;;;;;5011054;28;20076;-59
2020/12/02 06:17:45;;;;;;;147.88;65.88;;;;;;;;;;5011576;28;20033;-57
2020/12/02 06:20:11;;;;;;;161.10;73.50;;;;;;;;;;5011774;28;20030;-59
2020/12/02 06:22:48;;;;;;;127.03;59.08;;;;;;;;;;5011752;28;20077;-57
2020/12/02 06:25:33;;;;;;;97.63;44.88;;;;;;;;;;5015213;28;20049;-58
2020/12/02 06:27:59;;;;;;;104.53;45.95;;;;;;;;;;5015305;28;20485;-58
2020/12/02 06:30:25;;;;;;;120.05;53.38;;;;;;;;;;5015358;28;20033;-58
2020/12/02 06:32:58;;;;;;;110.70;51.90;;;;;;;;;;5014980;28;20489;-58
2020/12/02 06:35:24;;;;;;;136.93;66.05;;;;;;;;;;5015220;28;20042;-58
2020/12/02 06:38:09;;;;;;;148.32;71.50;;;;;;;;;;5015180;28;20022;-58
2020/12/02 06:40:56;;;;;;;173.63;86.20;;;;;;;;;;5015254;28;20029;-58
2020/12/02 06:43:23;;;;;;;217.00;106.55;;;;;;;;;;5015024;28;20099;-61
2020/12/02 06:45:49;;;;;;;370.38;182.50;;;;;;;;;;5014812;28;20038;-61
2020/12/02 06:48:38;;;;;;;230.68;119.65;;;;;;;;;;5014930;28;20067;-61
2020/12/02 06:51:08;;;;;;;179.82;92.00;;;;;;;;;;5014661;28;20029;-61
2020/12/02 06:53:34;;;;;;;162.40;88.47;;;;;;;;;;5014647;28;20374;-61
2020/12/02 06:56:01;;;;;;;161.52;87.25;;;;;;;;;;5014732;28;20033;-61
2020/12/02 06:58:28;;;;;;;152.57;81.65;;;;;;;;;;5014684;28;20473;-62
2020/12/02 07:00:56;;;;;;;168.15;91.95;;;;;;;;;;5014895;28;20496;-61
2020/12/02 07:03:22;;;;;;;195.00;105.80;;;;;;;;;;5014091;28;20053;-61
2020/12/02 07:05:49;;;;;;;190.77;104.20;;;;;;;;;;5014643;28;20555;-58
2020/12/02 07:08:22;;;;;;;182.02;100.72;;;;;;;;;;5014488;28;20081;-58
2020/12/02 07:11:00;;;;;;;145.80;78.70;;;;;;;;;;5014478;28;20100;-58
2020/12/02 07:13:27;;;;;;;133.07;69.95;;;;;;;;;;5014282;28;20191;-58
2020/12/02 07:15:53;;;;;;;113.25;56.95;;;;;;;;;;5014204;28;20022;-58
2020/12/02 07:18:20;;;;;;;120.45;62.25;;;;;;;;;;5013945;28;20049;-58
2020/12/02 07:20:47;;;;;;;127.47;61.97;;;;;;;;;;5014129;28;20037;-58
2020/12/02 07:23:15;;;;;;;122.53;63.17;;;;;;;;;;5014372;28;20084;-58
2020/12/02 07:25:41;;;;;;;135.82;74.55;;;;;;;;;;5013979;28;20062;-58
2020/12/02 07:28:13;;;;;;;138.30;74.53;;;;;;;;;;5014070;28;20053;-62
2020/12/02 07:30:41;;;;;;;143.23;80.07;;;;;;;;;;5013963;28;20101;-59
2020/12/02 07:33:18;;;;;;;142.52;82.40;;;;;;;;;;5013976;28;20014;-59
2020/12/02 07:35:45;;;;;;;133.02;75.20;;;;;;;;;;5013208;28;20042;-58
2020/12/02 07:38:13;;;;;;;138.52;80.60;;;;;;;;;;5013870;28;20014;-57
2020/12/02 07:40:40;;;;;;;127.68;77.20;;;;;;;;;;5013733;28;20436;-59
2020/12/02 07:43:10;;;;;;;138.68;81.25;;;;;;;;;;5013993;28;20021;-58
2020/12/02 07:45:37;;;;;;;159.30;89.55;;;;;;;;;;5013831;28;20037;-56
2020/12/02 07:48:09;;;;;;;184.07;102.65;;;;;;;;;;5013742;28;20049;-59
2020/12/02 07:50:39;;;;;;;173.50;101.95;;;;;;;;;;5013675;28;20116;-57
2020/12/02 07:53:32;;;;;;;211.82;119.00;;;;;;;;;;5013595;28;20022;-58
2020/12/02 07:55:58;;;;;;;181.27;105.75;;;;;;;;;;5013668;28;20026;-57
2020/12/02 07:58:28;;;;;;;184.95;110.85;;;;;;;;;;5012807;28;20081;-58
2020/12/02 08:00:54;;;;;;;177.43;111.72;;;;;;;;;;5013034;28;20097;-59
2020/12/02 08:03:41;;;;;;;159.77;101.15;;;;;;;;;;5012960;28;20073;-60
2020/12/02 08:06:10;;;;;;;213.45;133.85;;;;;;;;;;5013292;28;20095;-60
2020/12/02 08:08:36;;;;;;;184.63;116.13;;;;;;;;;;5012830;28;20101;-59
2020/12/02 08:11:10;;;;;;;174.35;109.97;;;;;;;;;;5012922;28;20109;-60
2020/12/02 08:13:36;;;;;;;214.70;129.15;;;;;;;;;;5012344;28;20076;-59
2020/12/02 08:16:03;;;;;;;172.57;111.00;;;;;;;;;;5013039;28;20112;-60
2020/12/02 08:18:30;;;;;;;152.18;99.68;;;;;;;;;;5013142;28;20034;-60
2020/12/02 08:21:26;;;;;;;178.57;116.15;;;;;;;;;;5013064;28;20025;-59
2020/12/02 08:24:04;;;;;;;138.02;86.38;;;;;;;;;;4990788;28;20031;-60
2020/12/02 08:26:30;;;;;;;147.23;94.38;;;;;;;;;;4991154;28;20030;-59
2020/12/02 08:29:02;;;;;;;145.00;93.80;;;;;;;;;;4990835;28;20069;-59
2020/12/02 08:31:30;;;;;;;167.88;104.20;;;;;;;;;;4991134;28;20536;-59
2020/12/02 08:34:14;;;;;;;153.90;99.50;;;;;;;;;;4990847;28;20426;-59
2020/12/02 08:36:48;;;;;;;160.75;100.47;;;;;;;;;;4988504;28;20471;-59
2020/12/02 08:39:27;;;;;;;168.65;106.47;;;;;;;;;;4986253;28;20057;-58
2020/12/02 08:41:53;;;;;;;167.70;106.38;;;;;;;;;;4989148;28;20545;-58
2020/12/02 08:44:19;;;;;;;167.48;100.47;;;;;;;;;;4990388;28;20501;-59
2020/12/02 08:46:47;;;;;;;161.68;100.35;;;;;;;;;;4989862;28;20039;-59
2020/12/02 08:49:13;;;;;;;155.45;96.18;;;;;;;;;;4990403;28;20138;-60
2020/12/02 08:51:39;;;;;;;156.77;95.18;;;;;;;;;;4990576;28;20044;-60
2020/12/02 08:54:16;;;;;;;156.40;91.57;;;;;;;;;;4990642;28;20213;-59
2020/12/02 08:56:43;;;;;;;141.10;85.43;;;;;;;;;;4990141;28;20112;-59
2020/12/02 08:59:11;;;;;;;142.50;84.38;;;;;;;;;;4991606;28;20026;-60
2020/12/02 09:01:37;;;;;;;51.13;30.98;;;;;;;;;;5012177;28;20101;-60
2020/12/02 09:04:03;;;;;;;38.40;23.27;;;;;;;;;;5011522;28;20041;-59
2020/12/02 09:06:32;;;;;;;37.28;21.30;;;;;;;;;;5011757;28;20577;-59
2020/12/02 09:08:59;;;;;;;33.58;20.52;;;;;;;;;;5002665;28;20472;-60
2020/12/02 09:11:25;;;;;;;33.88;20.40;;;;;;;;;;5012215;28;20026;-60
2020/12/02 09:13:51;;;;;;;34.78;19.70;;;;;;;;;;5011889;28;20033;-60
2020/12/02 09:16:21;;;;;;;33.42;19.77;;;;;;;;;;5011599;28;20121;-59
2020/12/02 09:18:47;;;;;;;34.72;20.05;;;;;;;;;;5011649;28;20033;-57
2020/12/02 09:21:14;;;;;;;32.47;19.75;;;;;;;;;;5011777;28;20026;-58
2020/12/02 09:23:40;;;;;;;34.55;19.98;;;;;;;;;;5012226;28;20030;-58
2020/12/02 09:26:06;;;;;;;37.47;20.27;;;;;;;;;;5011911;28;20034;-58
2020/12/02 09:28:32;;;;;;;35.53;21.08;;;;;;;;;;5011768;28;20382;-56
2020/12/02 09:30:58;;;;;;;33.70;21.75;;;;;;;;;;5010168;28;20079;-58
2020/12/02 09:33:24;;;;;;;36.60;21.63;;;;;;;;;;5010392;28;20022;-54
2020/12/02 09:35:50;;;;;;;34.00;21.13;;;;;;;;;;5011910;28;20478;-55
2020/12/02 09:38:17;;;;;;;35.50;20.65;;;;;;;;;;5012319;28;20498;-56
2020/12/02 09:40:43;;;;;;;35.25;20.60;;;;;;;;;;5011237;28;20032;-58
2020/12/02 09:43:35;;;;;;;37.47;21.23;;;;;;;;;;5011937;28;20048;-57
2020/12/02 09:46:13;;;;;;;33.75;20.70;;;;;;;;;;5002845;28;20065;-56
2020/12/02 09:48:39;;;;;;;36.83;21.70;;;;;;;;;;5009778;28;20052;-54
2020/12/02 09:51:10;;;;;;;36.13;20.27;;;;;;;;;;5011329;28;20461;-56
2020/12/02 09:53:36;;;;;;;35.92;22.10;;;;;;;;;;5011857;28;20028;-56
2020/12/02 09:56:05;;;;;;;37.08;22.48;;;;;;;;;;5011298;28;20030;-55
2020/12/02 09:58:31;;;;;;;33.85;21.45;;;;;;;;;;5013972;28;20469;-56
2020/12/02 10:01:01;;;;;;;36.72;22.10;;;;;;;;;;5015504;28;20038;-57
2020/12/02 10:03:36;;;;;;;35.53;22.33;;;;;;;;;;5169633;22;20081;-65
2020/12/02 10:06:09;;;;;;;38.25;22.92;;;;;;;;;;5034879;28;20373;-65
2020/12/02 10:08:47;;;;;;;36.10;22.60;;;;;;;;;;5033021;28;20520;-65
2020/12/02 10:11:22;;;;;;;35.28;21.52;;;;;;;;;;5032374;28;20495;-63
2020/12/02 10:13:48;;;;;;;37.10;21.55;;;;;;;;;;5034031;28;20024;-52
2020/12/02 10:16:23;;;;;;;38.83;22.08;;;;;;;;;;5034005;28;20346;-62
2020/12/02 10:18:49;;;;;;;36.15;21.98;;;;;;;;;;5034668;28;20033;-60
2020/12/02 10:21:28;;;;;;;42.78;21.63;;;;;;;;;;5034984;28;20109;-62
2020/12/02 10:23:54;;;;;;;34.67;21.88;;;;;;;;;;5030947;28;20105;-58
2020/12/02 10:26:28;;;;;;;34.97;21.98;;;;;;;;;;5033919;28;20065;-64
2020/12/02 10:28:59;;;;;;;36.42;21.30;;;;;;;;;;5029796;28;20052;-61
2020/12/02 10:31:43;;;;;;;36.88;21.95;;;;;;;;;;5033591;28;20080;-64
2020/12/02 10:34:27;;;;;;;40.95;24.33;;;;;;;;;;5034582;28;20088;-57
2020/12/02 10:37:00;;;;;;;39.25;23.45;;;;;;;;;;5028098;28;20358;-60
2020/12/02 10:39:28;;;;;;;44.28;24.23;;;;;;;;;;5033621;28;20354;-67
2020/12/02 10:42:02;;;;;;;42.17;24.17;;;;;;;;;;5033664;28;20021;-64
2020/12/02 10:44:51;;;;;;;44.25;24.67;;;;;;;;;;5033643;28;20504;-60
2020/12/02 10:47:23;;;;;;;45.17;26.67;;;;;;;;;;5010537;28;20060;-57
2020/12/02 10:49:49;;;;;;;43.05;25.75;;;;;;;;;;5011554;28;20096;-64
2020/12/02 10:52:16;;;;;;;48.65;26.50;;;;;;;;;;5011393;28;20026;-56
2020/12/02 10:54:45;;;;;;;44.40;26.55;;;;;;;;;;5011262;28;20025;-59
2020/12/02 10:57:15;;;;;;;43.60;26.50;;;;;;;;;;5011475;28;20032;-60
2020/12/02 10:59:42;;;;;;;42.15;26.33;;;;;;;;;;5011355;28;20022;-62
2020/12/02 11:02:14;;;;;;;41.55;25.33;;;;;;;;;;5009156;28;20561;-62
2020/12/02 11:04:40;;;;;;;46.63;26.35;;;;;;;;;;5010101;28;20100;-61
2020/12/02 11:07:08;;;;;;;42.65;26.58;;;;;;;;;;5010967;28;20076;-63
2020/12/02 11:09:49;;;;;;;53.88;30.45;;;;;;;;;;5009880;28;20032;-62
2020/12/02 11:12:18;;;;;;;43.83;25.90;;;;;;;;;;5009546;28;20113;-60
2020/12/02 11:14:47;;;;;;;46.55;26.75;;;;;;;;;;5011161;28;20105;-63
2020/12/02 11:17:31;;;;;;;43.10;26.00;;;;;;;;;;4994691;28;20053;-62
2020/12/02 11:20:03;;;;;;;48.67;27.83;;;;;;;;;;5011383;28;20164;-60
2020/12/02 11:22:31;;;;;;;48.20;28.42;;;;;;;;;;5007442;28;20099;-59
2020/12/02 11:25:03;;;;;;;46.85;26.50;;;;;;;;;;5012674;28;20046;-58
2020/12/02 11:27:29;;;;;;;;;;;;;;;;;;5013721;28;20053;-59
2020/12/02 11:29:55;;;;;;;47.20;27.20;;;;;;;;;;5013487;28;19944;-61
2020/12/02 11:32:36;;;;;;;47.17;26.73;;;;;;;;;;5012668;28;20038;-57
2020/12/02 11:35:03;;;;;;;47.17;28.25;;;;;;;;;;5013579;28;20156;-63
2020/12/02 11:37:34;;;;;;;44.85;27.75;;;;;;;;;;5012943;28;20022;-63
2020/12/02 11:40:05;;;;;;;45.28;26.67;;;;;;;;;;5013109;28;20052;-65
2020/12/02 11:42:41;;;;;;;49.33;28.37;;;;;;;;;;5012735;28;20588;-62
2020/12/02 11:45:17;;;;;;;45.83;27.88;;;;;;;;;;5008546;28;20184;-57
2020/12/02 11:47:48;;;;;;;47.63;27.67;;;;;;;;;;5012089;28;20030;-63
2020/12/02 11:50:22;;;;;;;56.67;32.80;;;;;;;;;;5011801;28;20041;-63
2020/12/02 11:52:48;;;;;;;46.53;27.83;;;;;;;;;;5012519;28;20029;-62
2020/12/02 11:55:18;;;;;;;45.13;27.90;;;;;;;;;;5008774;28;20050;-61
2020/12/02 11:57:56;;;;;;;46.58;28.10;;;;;;;;;;5011947;28;20026;-60
2020/12/02 12:00:22;;;;;;;47.33;29.02;;;;;;;;;;5011985;28;20033;-60
2020/12/02 12:03:03;;;;;;;49.88;30.30;;;;;;;;;;5012117;28;20045;-61
2020/12/02 12:05:48;;;;;;;49.38;28.05;;;;;;;;;;5012491;28;20393;-62
2020/12/02 12:08:43;;;;;;;45.55;28.20;;;;;;;;;;5012283;28;20025;-64
2020/12/02 12:11:13;;;;;;;46.97;28.83;;;;;;;;;;4989990;28;20096;-61
2020/12/02 12:13:48;;;;;;;47.30;28.27;;;;;;;;;;4999317;28;20019;-60
2020/12/02 12:16:26;;;;;;;43.63;27.23;;;;;;;;;;5005109;28;20107;-62
2020/12/02 12:19:10;;;;;;;44.92;28.05;;;;;;;;;;5009612;28;20607;-60
2020/12/02 12:21:42;;;;;;;41.38;26.90;;;;;;;;;;5009608;28;20447;-59
2020/12/02 12:24:11;;;;;;;41.30;26.10;;;;;;;;;;5009500;28;20030;-66
2020/12/02 12:26:40;;;;;;;42.17;27.00;;;;;;;;;;5009116;28;20044;-66
2020/12/02 12:29:08;;;;;;;41.70;27.92;;;;;;;;;;4993366;28;20026;-64
2020/12/02 12:31:42;;;;;;;42.58;27.27;;;;;;;;;;5010078;28;20501;-59
2020/12/02 12:34:18;;;;;;;40.75;26.20;;;;;;;;;;5006487;28;20041;-68
2020/12/02 12:36:47;;;;;;;43.45;27.92;;;;;;;;;;5008965;28;20069;-60
2020/12/02 12:39:17;;;;;;;41.50;27.33;;;;;;;;;;5009827;28;20037;-58
2020/12/02 12:41:45;;;;;;;41.40;26.90;;;;;;;;;;5009923;28;20036;-59
2020/12/02 12:44:14;;;;;;;44.53;28.08;;;;;;;;;;5007935;28;20026;-68
2020/12/02 12:46:48;;;;;;;43.17;28.00;;;;;;;;;;5009513;28;20405;-68
2020/12/02 12:49:15;;;;;;;42.58;27.20;;;;;;;;;;5011630;28;20026;-58
2020/12/02 12:51:42;;;;;;;45.75;28.17;;;;;;;;;;5011088;28;20033;-54
2020/12/02 12:54:11;;;;;;;42.75;27.23;;;;;;;;;;5010497;28;20026;-63
2020/12/02 12:56:37;;;;;;;44.55;26.50;;;;;;;;;;5012222;28;20036;-57
2020/12/02 12:59:04;;;;;;;37.92;25.40;;;;;;;;;;5011938;28;20172;-60
2020/12/02 13:01:30;;;;;;;39.35;25.05;;;;;;;;;;5011645;28;20037;-65
2020/12/02 13:03:56;;;;;;;38.35;25.13;;;;;;;;;;5012270;28;20132;-66
2020/12/02 13:06:41;;;;;;;38.25;24.63;;;;;;;;;;5012404;28;20160;-66
2020/12/02 13:09:16;;;;;;;40.60;25.30;;;;;;;;;;5007423;28;20386;-66
2020/12/02 13:11:54;;;;;;;36.80;24.00;;;;;;;;;;5011983;28;20061;-64
2020/12/02 13:14:42;;;;;;;38.78;24.42;;;;;;;;;;5012168;28;20037;-64
2020/12/02 13:17:11;;;;;;;39.58;24.15;;;;;;;;;;5012273;28;20017;-59
2020/12/02 13:19:45;;;;;;;40.30;25.08;;;;;;;;;;5012304;28;20037;-62
2020/12/02 13:22:26;;;;;;;48.67;29.92;;;;;;;;;;5012527;28;20041;-63
2020/12/02 13:24:58;;;;;;;44.88;27.60;;;;;;;;;;5012188;28;20065;-61
2020/12/02 13:27:32;;;;;;;40.05;24.67;;;;;;;;;;5012112;28;20045;-61
2020/12/02 13:30:05;;;;;;;66.28;39.13;;;;;;;;;;5012498;28;20030;-60
2020/12/02 13:32:34;;;;;;;43.25;25.55;;;;;;;;;;5013121;28;20118;-67
2020/12/02 13:35:00;;;;;;;41.60;24.23;;;;;;;;;;5015813;28;20032;-64
2020/12/02 13:37:26;;;;;;;41.42;26.02;;;;;;;;;;5015947;28;20097;-52
2020/12/02 13:39:52;;;;;;;42.85;26.83;;;;;;;;;;5016088;28;20032;-53
2020/12/02 13:42:18;;;;;;;40.67;23.63;;;;;;;;;;5014593;28;20025;-53
2020/12/02 13:44:50;;;;;;;41.53;24.13;;;;;;;;;;5015956;28;20112;-59
2020/12/02 13:47:17;;;;;;;42.03;25.33;;;;;;;;;;5015662;28;20469;-66
2020/12/02 13:49:43;;;;;;;46.78;25.83;;;;;;;;;;5015720;28;20501;-54
2020/12/02 13:52:12;;;;;;;37.97;21.60;;;;;;;;;;5015908;28;20026;-53
2020/12/02 13:54:47;;;;;;;46.88;26.80;;;;;;;;;;5015885;28;20026;-59
2020/12/02 13:57:13;;;;;;;42.40;24.45;;;;;;;;;;5015659;28;20037;-62
2020/12/02 13:59:47;;;;;;;41.28;22.90;;;;;;;;;;5015528;28;20018;-66
2020/12/02 14:02:23;;;;;;;41.80;22.98;;;;;;;;;;5014930;28;20129;-66
2020/12/02 14:04:55;;;;;;;43.45;24.67;;;;;;;;;;5015510;28;20037;-65
2020/12/02 14:07:21;;;;;;;41.90;22.55;;;;;;;;;;5015434;28;20152;-64
2020/12/02 14:09:52;;;;;;;42.35;23.13;;;;;;;;;;5015501;28;20037;-66
2020/12/02 14:12:20;;;;;;;43.60;23.45;;;;;;;;;;5015225;28;20040;-63
2020/12/02 14:14:47;;;;;;;52.30;28.42;;;;;;;;;;5014923;28;20485;-65
2020/12/02 14:17:16;;;;;;;43.63;24.05;;;;;;;;;;5013780;28;20033;-67
2020/12/02 14:19:42;;;;;;;43.38;23.63;;;;;;;;;;5015507;28;20036;-64
2020/12/02 14:22:15;;;;;;;44.13;23.90;;;;;;;;;;5014576;28;20026;-62
2020/12/02 14:24:43;;;;;;;57.28;30.02;;;;;;;;;;5015235;28;20048;-65
2020/12/02 14:27:10;;;;;;;48.63;27.45;;;;;;;;;;5015201;28;20049;-63